Terminal Aerodrome Forecast
Issued by NWS

Home | Current Version | Previous Version | Graphics & Text | Print | Product List | Glossary On
Versions: 1 2 3 4 5 6 7 8 9 10 11 12 13 14
640
FTUS41 KCLE 210541
TAFFDY
TAF
KFDY 210541Z 2106/2206 21014KT P6SM SCT250 WS020/22045KT
     FM211400 22018G30KT P6SM SCT100 BKN250
     FM212300 28012G20KT P6SM SCT015 OVC035
      TEMPO 2123/2202 OVC015
     FM220200 30012G20KT P6SM SCT015 BKN035
     FM220500 30010KT P6SM SCT016 SCT100=

USA.gov is the U.S. government's official web portal to all federal, state and local government web resources and services.